createdAt,value
2019-06-27T00:00:35.940Z,100.00
2019-06-27T00:03:02.221Z,100.00
2019-06-27T00:05:28.553Z,100.00
2019-06-27T00:07:54.868Z,100.00
2019-06-27T00:10:21.182Z,100.00
2019-06-27T00:12:47.516Z,100.00
2019-06-27T00:15:13.824Z,100.00
2019-06-27T00:17:40.163Z,100.00
2019-06-27T00:20:06.473Z,100.00
2019-06-27T00:22:32.803Z,100.00
2019-06-27T00:24:59.116Z,100.00
2019-06-27T00:27:25.449Z,100.00
2019-06-27T00:29:51.783Z,100.00
2019-06-27T00:32:18.091Z,100.00
2019-06-27T00:34:44.421Z,100.00
2019-06-27T00:37:10.732Z,100.00
2019-06-27T00:39:37.048Z,100.00
2019-06-27T00:42:03.396Z,100.00
2019-06-27T00:44:29.708Z,100.00
2019-06-27T00:46:56.041Z,100.00
2019-06-27T00:49:22.376Z,100.00
2019-06-27T00:51:48.684Z,100.00
2019-06-27T00:54:15.020Z,100.00
2019-06-27T00:56:41.328Z,100.00
2019-06-27T00:59:07.666Z,100.00
2019-06-27T01:01:33.976Z,100.00
2019-06-27T01:04:00.310Z,100.00
2019-06-27T01:06:26.620Z,100.00
2019-06-27T01:08:52.935Z,100.00
2019-06-27T01:11:19.270Z,100.00
2019-06-27T01:13:45.582Z,100.00
2019-06-27T01:16:11.911Z,100.00
2019-06-27T01:18:38.221Z,100.00
2019-06-27T01:21:04.559Z,100.00
2019-06-27T01:23:30.874Z,100.00
2019-06-27T01:25:57.214Z,100.00
2019-06-27T01:28:23.552Z,100.00
2019-06-27T01:30:49.869Z,100.00
2019-06-27T01:33:16.208Z,100.00
2019-06-27T01:35:42.521Z,100.00
2019-06-27T01:38:08.861Z,100.00
2019-06-27T01:40:35.175Z,100.00
2019-06-27T01:43:01.524Z,100.00
2019-06-27T01:45:27.825Z,100.00
2019-06-27T01:47:54.142Z,100.00
2019-06-27T01:50:20.487Z,100.00
2019-06-27T01:52:46.796Z,100.00
2019-06-27T01:55:13.133Z,100.00
2019-06-27T01:57:46.788Z,100.00
2019-06-27T02:00:05.785Z,100.00
2019-06-27T02:02:32.119Z,100.00
2019-06-27T02:04:58.438Z,100.00
2019-06-27T02:07:24.755Z,100.00
2019-06-27T02:09:51.118Z,100.00
2019-06-27T02:12:17.409Z,100.00
2019-06-27T02:14:43.742Z,100.00
2019-06-27T02:17:10.058Z,100.00
2019-06-27T02:19:36.396Z,100.00
2019-06-27T02:22:02.708Z,100.00
2019-06-27T02:24:29.046Z,100.00
2019-06-27T02:26:55.381Z,100.00
2019-06-27T02:29:21.696Z,100.00
2019-06-27T02:31:48.028Z,100.00
2019-06-27T02:34:14.342Z,100.00
2019-06-27T02:36:40.676Z,100.00
2019-06-27T02:39:08.389Z,100.00
2019-06-27T02:41:34.726Z,100.00
2019-06-27T02:44:01.048Z,100.00
2019-06-27T02:46:27.366Z,100.00
2019-06-27T02:48:53.698Z,100.00
2019-06-27T02:51:20.008Z,100.00
2019-06-27T02:53:46.341Z,100.00
2019-06-27T02:56:12.658Z,100.00
2019-06-27T02:58:38.996Z,100.00
2019-06-27T03:01:05.308Z,100.00
2019-06-27T03:03:31.643Z,100.00
2019-06-27T03:05:57.993Z,100.00
2019-06-27T03:08:24.296Z,100.00
2019-06-27T03:10:50.628Z,100.00
2019-06-27T03:13:16.937Z,100.00
2019-06-27T03:15:43.263Z,100.00
2019-06-27T03:18:09.600Z,100.00
2019-06-27T03:20:35.921Z,100.00
2019-06-27T03:23:02.256Z,100.00
2019-06-27T03:25:28.594Z,100.00
2019-06-27T03:27:54.914Z,100.00
2019-06-27T03:30:21.269Z,100.00
2019-06-27T03:32:47.561Z,100.00
2019-06-27T03:35:13.928Z,100.00
2019-06-27T03:37:40.209Z,100.00
2019-06-27T03:40:06.599Z,100.00
2019-06-27T03:42:32.920Z,100.00
2019-06-27T03:44:59.231Z,100.00
2019-06-27T03:47:25.571Z,100.00
2019-06-27T03:49:51.885Z,100.00
2019-06-27T03:52:18.219Z,100.00
2019-06-27T03:54:44.542Z,100.00
2019-06-27T03:57:10.881Z,100.00
2019-06-27T03:59:37.202Z,100.00
2019-06-27T04:02:03.537Z,100.00
2019-06-27T04:04:29.868Z,100.00
2019-06-27T04:06:56.187Z,100.00
2019-06-27T04:09:22.535Z,100.00
2019-06-27T04:11:48.848Z,100.00
2019-06-27T04:14:15.187Z,100.00
2019-06-27T04:16:41.504Z,100.00
2019-06-27T04:19:07.836Z,100.00
2019-06-27T04:21:34.153Z,100.00
2019-06-27T04:24:00.472Z,100.00
2019-06-27T04:26:26.814Z,100.00
2019-06-27T04:28:53.133Z,100.00
2019-06-27T04:31:19.469Z,100.00
2019-06-27T04:33:45.815Z,100.00
2019-06-27T04:36:12.112Z,100.00
2019-06-27T04:38:38.446Z,100.00
2019-06-27T04:41:04.949Z,100.00
2019-06-27T04:43:31.265Z,100.00
2019-06-27T04:45:57.603Z,100.00
2019-06-27T04:48:23.971Z,100.00
2019-06-27T04:50:50.277Z,100.00
2019-06-27T04:53:16.589Z,100.00
2019-06-27T04:55:42.924Z,100.00
2019-06-27T04:58:09.241Z,100.00
2019-06-27T05:00:35.599Z,100.00
2019-06-27T05:03:01.924Z,100.00
2019-06-27T05:05:28.236Z,100.00
2019-06-27T05:07:54.615Z,100.00
2019-06-27T05:10:20.929Z,100.00
2019-06-27T05:12:47.256Z,100.00
2019-06-27T05:15:13.595Z,100.00
2019-06-27T05:17:39.910Z,100.00
2019-06-27T05:20:06.247Z,100.00
2019-06-27T05:22:32.579Z,100.00
2019-06-27T05:24:58.892Z,100.00
2019-06-27T05:27:25.226Z,100.00
2019-06-27T05:29:51.536Z,100.00
2019-06-27T05:32:17.908Z,100.00
2019-06-27T05:34:44.263Z,100.00
2019-06-27T05:37:10.570Z,100.00
2019-06-27T05:39:36.882Z,100.00
2019-06-27T05:42:03.191Z,100.00
2019-06-27T05:44:29.664Z,100.00
2019-06-27T05:46:55.977Z,100.00
2019-06-27T05:49:22.306Z,100.00
2019-06-27T05:51:48.664Z,100.00
2019-06-27T05:54:14.961Z,100.00
2019-06-27T05:56:41.276Z,100.00
2019-06-27T05:59:07.584Z,100.00
2019-06-27T06:01:33.906Z,100.00
2019-06-27T06:04:00.241Z,100.00
2019-06-27T06:06:26.587Z,100.00
2019-06-27T06:08:52.929Z,100.00
2019-06-27T06:11:19.229Z,100.00
2019-06-27T06:13:45.557Z,100.00
2019-06-27T06:16:11.899Z,100.00
2019-06-27T06:18:38.223Z,100.00
2019-06-27T06:21:04.554Z,100.00
2019-06-27T06:23:30.865Z,100.00
2019-06-27T06:25:57.192Z,100.00
2019-06-27T06:28:23.493Z,100.00
2019-06-27T06:30:49.823Z,96.10
2019-06-27T06:33:16.130Z,92.23
2019-06-27T06:35:42.464Z,91.36
2019-06-27T06:38:08.769Z,91.47
2019-06-27T06:40:35.098Z,92.66
2019-06-27T06:43:01.408Z,93.96
2019-06-27T06:45:27.713Z,94.59
2019-06-27T06:47:54.038Z,95.58
2019-06-27T06:50:23.417Z,95.38
2019-06-27T06:52:46.673Z,94.99
2019-06-27T06:55:12.980Z,95.76
2019-06-27T06:57:39.380Z,94.54
2019-06-27T07:00:05.734Z,94.60
2019-06-27T07:02:32.005Z,94.73
2019-06-27T07:04:58.377Z,94.46
2019-06-27T07:07:24.685Z,94.89
2019-06-27T07:09:51.035Z,92.96
2019-06-27T07:12:17.367Z,91.86
2019-06-27T07:14:43.713Z,92.55
2019-06-27T07:17:10.041Z,89.43
2019-06-27T07:19:36.368Z,88.73
2019-06-27T07:22:02.682Z,85.93
2019-06-27T07:24:29.011Z,85.19
2019-06-27T07:26:55.317Z,84.30
2019-06-27T07:29:21.642Z,82.95
2019-06-27T07:31:47.996Z,83.57
2019-06-27T07:34:14.324Z,82.93
2019-06-27T07:36:40.679Z,81.12
2019-06-27T07:39:06.945Z,79.63
2019-06-27T07:41:33.275Z,79.42
2019-06-27T07:43:59.580Z,79.66
2019-06-27T07:46:26.166Z,76.18
2019-06-27T07:48:52.253Z,75.03
2019-06-27T07:51:18.575Z,73.09
2019-06-27T07:53:44.888Z,69.12
2019-06-27T07:56:11.211Z,64.85
2019-06-27T07:58:37.546Z,61.07
2019-06-27T08:01:03.845Z,61.26
2019-06-27T08:03:30.175Z,62.14
2019-06-27T08:05:56.492Z,64.24
2019-06-27T08:08:22.823Z,62.40
2019-06-27T08:10:49.175Z,61.08
2019-06-27T08:13:15.445Z,62.35
2019-06-27T08:15:41.765Z,63.68
2019-06-27T08:18:08.074Z,61.99
2019-06-27T08:20:34.406Z,60.32
2019-06-27T08:23:00.716Z,60.88
2019-06-27T08:25:27.040Z,59.18
2019-06-27T08:27:53.436Z,58.88
2019-06-27T08:30:19.732Z,59.58
2019-06-27T08:32:46.061Z,60.40
2019-06-27T08:35:12.366Z,58.25
2019-06-27T08:37:38.681Z,57.48
2019-06-27T08:40:05.097Z,59.44
2019-06-27T08:42:31.389Z,59.08
2019-06-27T08:44:57.754Z,60.14
2019-06-27T08:47:24.654Z,59.46
2019-06-27T08:49:51.504Z,58.93
2019-06-27T08:52:18.265Z,55.98
2019-06-27T08:54:44.610Z,53.26
2019-06-27T08:57:10.952Z,54.43
2019-06-27T08:59:37.276Z,55.32
2019-06-27T09:02:08.504Z,53.44
2019-06-27T09:04:29.884Z,51.36
2019-06-27T09:06:56.212Z,51.34
2019-06-27T09:09:22.519Z,51.61
2019-06-27T09:11:48.843Z,51.24
2019-06-27T09:14:15.148Z,51.52
2019-06-27T09:16:41.465Z,51.33
2019-06-27T09:19:07.810Z,51.40
2019-06-27T09:21:34.125Z,49.93
2019-06-27T09:24:00.450Z,50.37
2019-06-27T09:26:26.763Z,50.41
2019-06-27T09:28:53.100Z,47.98
2019-06-27T09:31:19.400Z,48.00
2019-06-27T09:33:45.726Z,45.72
2019-06-27T09:36:12.054Z,45.32
2019-06-27T09:38:38.386Z,44.43
2019-06-27T09:41:04.679Z,44.91
2019-06-27T09:43:30.985Z,45.88
2019-06-27T09:45:57.289Z,45.88
2019-06-27T09:48:23.683Z,45.99
2019-06-27T09:50:49.989Z,45.20
2019-06-27T09:53:16.313Z,44.17
2019-06-27T09:55:42.643Z,43.34
2019-06-27T09:58:08.987Z,42.53
2019-06-27T10:00:35.266Z,43.04
2019-06-27T10:03:01.673Z,43.83
2019-06-27T10:05:27.899Z,43.09
2019-06-27T10:07:54.216Z,42.95
2019-06-27T10:10:20.531Z,43.54
2019-06-27T10:12:46.835Z,42.26
2019-06-27T10:15:13.149Z,42.70
2019-06-27T10:17:39.555Z,42.88
2019-06-27T10:20:05.780Z,42.41
2019-06-27T10:22:32.111Z,43.32
2019-06-27T10:24:58.436Z,42.07
2019-06-27T10:27:24.739Z,41.71
2019-06-27T10:29:51.115Z,41.69
2019-06-27T10:32:17.420Z,42.76
2019-06-27T10:34:43.764Z,43.52
2019-06-27T10:37:10.071Z,43.78
2019-06-27T10:39:36.380Z,42.26
2019-06-27T10:42:02.707Z,42.36
2019-06-27T10:44:29.086Z,41.46
2019-06-27T10:46:55.482Z,41.50
2019-06-27T10:49:21.726Z,42.31
2019-06-27T10:51:48.044Z,42.99
2019-06-27T10:54:14.383Z,41.06
2019-06-27T10:56:40.694Z,41.46
2019-06-27T10:59:07.022Z,41.80
2019-06-27T11:01:33.321Z,41.63
2019-06-27T11:03:59.640Z,41.65
2019-06-27T11:06:25.969Z,41.60
2019-06-27T11:08:52.274Z,41.34
2019-06-27T11:11:18.593Z,41.27
2019-06-27T11:13:57.947Z,41.70
2019-06-27T11:16:11.225Z,39.55
2019-06-27T11:18:37.558Z,39.94
2019-06-27T11:21:03.863Z,40.07
2019-06-27T11:23:30.185Z,41.04
2019-06-27T11:25:56.500Z,41.02
2019-06-27T11:28:22.817Z,40.69
2019-06-27T11:30:49.134Z,40.49
2019-06-27T11:33:31.338Z,39.81
2019-06-27T11:35:41.778Z,40.14
2019-06-27T11:38:08.073Z,40.39
2019-06-27T11:40:34.404Z,40.85
2019-06-27T11:43:00.715Z,40.95
2019-06-27T11:45:27.068Z,40.63
2019-06-27T11:47:53.352Z,41.04
2019-06-27T11:50:19.688Z,42.08
2019-06-27T11:52:47.256Z,41.33
2019-06-27T11:55:12.321Z,42.18
2019-06-27T11:57:39.068Z,42.61
2019-06-27T12:00:05.375Z,43.66
2019-06-27T12:02:34.974Z,43.57
2019-06-27T12:05:01.287Z,42.84
2019-06-27T12:07:27.620Z,42.81
2019-06-27T12:09:53.954Z,43.77
2019-06-27T12:12:20.260Z,43.92
2019-06-27T12:14:46.592Z,43.42
2019-06-27T12:17:12.908Z,44.20
2019-06-27T12:19:39.223Z,44.59
2019-06-27T12:22:05.554Z,44.62
2019-06-27T12:24:31.858Z,44.99
2019-06-27T12:26:58.223Z,43.80
2019-06-27T12:29:24.551Z,44.60
2019-06-27T12:31:51.881Z,44.68
2019-06-27T12:34:17.200Z,44.70
2019-06-27T12:36:43.497Z,45.16
2019-06-27T12:39:09.821Z,45.61
2019-06-27T12:41:36.127Z,45.48
2019-06-27T12:44:02.455Z,45.32
2019-06-27T12:46:28.761Z,45.56
2019-06-27T12:48:55.228Z,45.37
2019-06-27T12:51:21.446Z,45.39
2019-06-27T12:53:47.724Z,46.20
2019-06-27T12:56:14.075Z,45.92
2019-06-27T12:58:40.403Z,45.39
2019-06-27T13:01:06.700Z,45.52
2019-06-27T13:03:33.007Z,45.31
2019-06-27T13:05:59.330Z,46.05
2019-06-27T13:08:25.648Z,45.12
2019-06-27T13:10:52.049Z,45.06
2019-06-27T13:13:18.376Z,45.55
2019-06-27T13:15:44.688Z,45.62
2019-06-27T13:18:11.017Z,46.31
2019-06-27T13:20:37.535Z,45.39
2019-06-27T13:23:03.861Z,47.89
2019-06-27T13:25:33.868Z,48.53
2019-06-27T13:27:56.500Z,46.57
2019-06-27T13:30:22.829Z,46.44
2019-06-27T13:32:49.131Z,46.74
2019-06-27T13:35:15.503Z,46.22
2019-06-27T13:37:41.821Z,46.65
2019-06-27T13:40:08.072Z,49.00
2019-06-27T13:42:38.010Z,48.09
2019-06-27T13:45:00.715Z,48.20
2019-06-27T13:47:27.047Z,46.27
2019-06-27T13:49:53.386Z,46.18
2019-06-27T13:52:19.693Z,45.95
2019-06-27T13:54:46.101Z,45.57
2019-06-27T13:57:12.413Z,45.11
2019-06-27T13:59:38.743Z,44.86
2019-06-27T14:02:05.048Z,44.40
2019-06-27T14:04:31.518Z,44.04
2019-06-27T14:06:57.825Z,44.12
2019-06-27T14:09:24.139Z,43.93
2019-06-27T14:11:50.464Z,44.51
2019-06-27T14:14:16.770Z,44.03
2019-06-27T14:16:43.102Z,44.10
2019-06-27T14:19:09.411Z,44.10
2019-06-27T14:21:35.743Z,44.14
2019-06-27T14:24:02.046Z,44.25
2019-06-27T14:26:28.384Z,44.25
2019-06-27T14:28:54.729Z,44.77
2019-06-27T14:31:21.013Z,44.73
2019-06-27T14:33:47.338Z,44.45
2019-06-27T14:36:13.647Z,44.35
2019-06-27T14:38:39.974Z,44.23
2019-06-27T14:41:06.278Z,44.05
2019-06-27T14:43:32.660Z,45.04
2019-06-27T14:45:58.978Z,45.89
2019-06-27T14:48:25.280Z,44.56
2019-06-27T14:50:51.609Z,44.38
2019-06-27T14:53:17.909Z,44.78
2019-06-27T14:55:44.235Z,44.78
2019-06-27T14:58:10.559Z,45.07
2019-06-27T15:00:36.866Z,45.49
2019-06-27T15:03:03.187Z,45.51
2019-06-27T15:05:33.110Z,45.58
2019-06-27T15:07:55.831Z,45.62
2019-06-27T15:10:22.138Z,45.62
2019-06-27T15:12:57.077Z,46.50
2019-06-27T15:15:14.763Z,45.90
2019-06-27T15:17:41.071Z,45.96
2019-06-27T15:20:07.396Z,46.15
2019-06-27T15:22:33.705Z,48.61
2019-06-27T15:25:00.035Z,49.07
2019-06-27T15:27:26.367Z,47.24
2019-06-27T15:29:52.744Z,47.02
2019-06-27T15:32:19.014Z,47.29
2019-06-27T15:34:45.302Z,47.14
2019-06-27T15:37:11.619Z,47.33
2019-06-27T15:39:37.942Z,47.25
2019-06-27T15:42:04.244Z,48.74
2019-06-27T15:44:30.576Z,48.99
2019-06-27T15:46:57.202Z,48.91
2019-06-27T15:49:23.505Z,49.41
2019-06-27T15:51:49.827Z,49.75
2019-06-27T15:54:16.134Z,50.30
2019-06-27T15:56:42.480Z,51.13
2019-06-27T15:59:08.781Z,50.89
2019-06-27T16:01:35.111Z,51.79
2019-06-27T16:04:01.421Z,51.88
2019-06-27T16:06:27.729Z,50.75
2019-06-27T16:08:54.066Z,51.14
2019-06-27T16:11:20.382Z,51.98
2019-06-27T16:13:46.699Z,53.02
2019-06-27T16:16:13.026Z,52.98
2019-06-27T16:18:40.979Z,53.30
2019-06-27T16:21:05.680Z,53.30
2019-06-27T16:23:31.964Z,54.71
2019-06-27T16:25:58.269Z,55.68
2019-06-27T16:28:27.122Z,55.63
2019-06-27T16:30:50.914Z,55.21
2019-06-27T16:33:17.245Z,55.68
2019-06-27T16:35:43.554Z,55.63
2019-06-27T16:38:09.894Z,56.67
2019-06-27T16:40:36.200Z,54.98
2019-06-27T16:43:02.531Z,55.94
2019-06-27T16:45:28.877Z,54.51
2019-06-27T16:47:55.262Z,53.96
2019-06-27T16:50:21.587Z,55.68
2019-06-27T16:52:47.892Z,55.34
2019-06-27T16:55:14.223Z,55.60
2019-06-27T16:57:40.533Z,54.06
2019-06-27T17:00:06.948Z,54.29
2019-06-27T17:02:33.171Z,53.41
2019-06-27T17:04:59.473Z,53.80
2019-06-27T17:07:25.802Z,54.75
2019-06-27T17:09:52.100Z,56.33
2019-06-27T17:12:18.456Z,56.78
2019-06-27T17:14:44.730Z,56.93
2019-06-27T17:17:11.064Z,57.08
2019-06-27T17:19:37.364Z,57.26
2019-06-27T17:22:03.692Z,58.26
2019-06-27T17:24:30.019Z,56.81
2019-06-27T17:26:56.325Z,56.72
2019-06-27T17:29:22.659Z,57.12
2019-06-27T17:31:48.955Z,57.84
2019-06-27T17:34:15.263Z,56.75
2019-06-27T17:36:53.575Z,56.97
2019-06-27T17:39:07.903Z,57.65
2019-06-27T17:41:34.243Z,57.72
2019-06-27T17:44:00.565Z,58.28
2019-06-27T17:46:26.896Z,58.62
2019-06-27T17:48:53.254Z,58.17
2019-06-27T17:51:19.558Z,58.02
2019-06-27T17:53:45.888Z,57.97
2019-06-27T17:56:12.223Z,58.45
2019-06-27T17:58:38.551Z,58.65
2019-06-27T18:01:04.852Z,58.71
2019-06-27T18:03:31.166Z,58.58
2019-06-27T18:05:57.492Z,58.81
2019-06-27T18:08:23.800Z,59.36
2019-06-27T18:10:50.122Z,59.49
2019-06-27T18:13:16.428Z,60.06
2019-06-27T18:15:42.752Z,59.88
2019-06-27T18:18:09.081Z,60.37
2019-06-27T18:20:35.407Z,60.77
2019-06-27T18:23:01.775Z,61.09
2019-06-27T18:25:28.076Z,61.27
2019-06-27T18:27:54.407Z,61.96
2019-06-27T18:30:20.710Z,62.06
2019-06-27T18:32:47.081Z,62.33
2019-06-27T18:35:13.353Z,62.55
2019-06-27T18:37:39.687Z,62.22
2019-06-27T18:40:05.989Z,62.39
2019-06-27T18:42:32.321Z,63.08
2019-06-27T18:44:58.643Z,62.62
2019-06-27T18:47:24.951Z,62.56
2019-06-27T18:49:51.299Z,62.73
2019-06-27T18:52:17.600Z,62.71
2019-06-27T18:54:43.910Z,62.75
2019-06-27T18:57:10.236Z,63.00
2019-06-27T18:59:36.541Z,63.13
2019-06-27T19:02:02.851Z,63.89
2019-06-27T19:04:29.183Z,63.62
2019-06-27T19:06:55.484Z,62.78
2019-06-27T19:09:21.823Z,62.86
2019-06-27T19:11:48.124Z,63.43
2019-06-27T19:14:14.454Z,63.36
2019-06-27T19:16:40.758Z,63.27
2019-06-27T19:19:07.094Z,63.41
2019-06-27T19:21:33.415Z,63.34
2019-06-27T19:23:59.720Z,63.41
2019-06-27T19:26:26.048Z,63.07
2019-06-27T19:28:52.353Z,62.29
2019-06-27T19:31:18.699Z,61.55
2019-06-27T19:33:44.990Z,60.88
2019-06-27T19:36:11.315Z,60.30
2019-06-27T19:38:37.627Z,59.83
2019-06-27T19:41:03.933Z,60.04
2019-06-27T19:43:30.261Z,60.26
2019-06-27T19:45:56.570Z,60.39
2019-06-27T19:48:22.896Z,60.52
2019-06-27T19:50:49.214Z,60.79
2019-06-27T19:53:15.531Z,61.11
2019-06-27T19:55:41.846Z,61.53
2019-06-27T19:58:08.170Z,61.77
2019-06-27T20:00:34.501Z,61.80
2019-06-27T20:03:00.833Z,61.84
2019-06-27T20:05:27.141Z,61.92
2019-06-27T20:07:53.441Z,62.09
2019-06-27T20:10:19.752Z,62.00
2019-06-27T20:12:46.069Z,62.35
2019-06-27T20:15:12.396Z,62.80
2019-06-27T20:17:38.723Z,63.25
2019-06-27T20:20:05.147Z,63.43
2019-06-27T20:22:31.453Z,64.19
2019-06-27T20:24:57.788Z,64.06
2019-06-27T20:27:24.118Z,64.18
2019-06-27T20:29:50.451Z,64.53
2019-06-27T20:32:16.758Z,64.71
2019-06-27T20:34:43.092Z,64.93
2019-06-27T20:37:09.393Z,64.90
2019-06-27T20:39:35.705Z,65.10
2019-06-27T20:42:02.025Z,65.49
2019-06-27T20:44:28.362Z,65.81
2019-06-27T20:46:54.684Z,66.04
2019-06-27T20:49:21.013Z,66.37
2019-06-27T20:51:47.347Z,66.58
2019-06-27T20:54:13.676Z,66.80
2019-06-27T20:56:39.986Z,66.94
2019-06-27T20:59:06.307Z,67.78
2019-06-27T21:01:32.629Z,68.15
2019-06-27T21:03:58.944Z,68.42
2019-06-27T21:06:25.272Z,64.24
2019-06-27T21:08:52.119Z,66.35
2019-06-27T21:11:17.902Z,67.86
2019-06-27T21:13:44.204Z,69.25
2019-06-27T21:16:10.535Z,70.08
2019-06-27T21:18:36.920Z,68.68
2019-06-27T21:21:03.334Z,72.27
2019-06-27T21:23:29.507Z,72.16
2019-06-27T21:25:55.798Z,72.38
2019-06-27T21:28:22.108Z,73.08
2019-06-27T21:30:48.440Z,73.06
2019-06-27T21:33:14.749Z,73.21
2019-06-27T21:35:41.076Z,73.37
2019-06-27T21:38:07.395Z,73.58
2019-06-27T21:40:33.703Z,73.67
2019-06-27T21:43:00.028Z,74.16
2019-06-27T21:45:26.332Z,74.74
2019-06-27T21:47:52.657Z,74.84
2019-06-27T21:50:18.964Z,75.05
2019-06-27T21:52:45.294Z,75.95
2019-06-27T21:55:11.610Z,76.44
2019-06-27T21:57:37.918Z,77.22
2019-06-27T22:00:04.250Z,77.58
2019-06-27T22:02:30.598Z,77.85
2019-06-27T22:04:56.892Z,78.49
2019-06-27T22:07:23.196Z,79.00
2019-06-27T22:09:49.517Z,79.59
2019-06-27T22:12:15.824Z,80.39
2019-06-27T22:14:42.154Z,80.89
2019-06-27T22:17:08.475Z,80.98
2019-06-27T22:19:34.781Z,81.36
2019-06-27T22:22:01.179Z,81.37
2019-06-27T22:24:27.490Z,81.84
2019-06-27T22:26:53.817Z,82.01
2019-06-27T22:29:20.138Z,82.18
2019-06-27T22:31:46.449Z,82.28
2019-06-27T22:34:12.747Z,82.15
2019-06-27T22:36:39.062Z,82.21
2019-06-27T22:39:05.394Z,82.37
2019-06-27T22:41:31.699Z,82.57
2019-06-27T22:43:58.030Z,82.35
2019-06-27T22:46:24.356Z,82.48
2019-06-27T22:48:50.661Z,82.54
2019-06-27T22:51:16.994Z,82.63
2019-06-27T22:53:43.302Z,82.81
2019-06-27T22:56:09.609Z,82.62
2019-06-27T22:58:35.939Z,82.57
2019-06-27T23:01:02.242Z,82.36
2019-06-27T23:03:28.568Z,82.54
2019-06-27T23:05:54.877Z,82.42
2019-06-27T23:08:21.200Z,82.86
2019-06-27T23:10:47.499Z,82.86
2019-06-27T23:13:13.889Z,82.51
2019-06-27T23:15:40.161Z,82.55
2019-06-27T23:18:06.484Z,82.55
2019-06-27T23:20:32.817Z,82.58
2019-06-27T23:22:59.120Z,82.83
2019-06-27T23:25:25.451Z,82.21
2019-06-27T23:27:51.754Z,82.20
2019-06-27T23:30:18.084Z,82.54
2019-06-27T23:32:44.389Z,82.88
2019-06-27T23:35:10.698Z,82.75
2019-06-27T23:37:37.023Z,82.64
2019-06-27T23:40:13.615Z,82.02
2019-06-27T23:42:29.660Z,81.97
2019-06-27T23:44:55.965Z,81.92
2019-06-27T23:47:22.296Z,82.00
2019-06-27T23:49:48.602Z,82.27
2019-06-27T23:52:14.932Z,82.63
2019-06-27T23:54:41.252Z,82.79
2019-06-27T23:57:07.564Z,83.07
2019-06-27T23:59:33.892Z,83.08
